Time;durP1;ratioP1;P1;durP2;ratioP2;P2;SDS_P1;SDS_P2;PMS_P1;PMS_P2;Temp;Humidity;BMP_temperature;BMP_pressure;BME280_temperature;BME280_humidity;BME280_pressure;Samples;Min_cycle;Max_cycle;Signal;HPM_P1;HPM_P2
2022/11/22 00:01:02;;;;;;;3.23;1.90;;;8.30;99.90;;;;;;4896331;29;20676;-72
2022/11/22 00:03:27;;;;;;;4.20;1.83;;;8.20;99.90;;;;;;4896651;29;20183;-73
2022/11/22 00:05:53;;;;;;;2.03;1.83;;;8.10;99.90;;;;;;4904560;29;20440;-72
2022/11/22 00:08:19;;;;;;;8.20;2.20;;;8.20;99.90;;;;;;4902345;29;20203;-75
2022/11/22 00:10:46;;;;;;;4.87;1.90;;;8.10;99.90;;;;;;4901871;29;20266;-73
2022/11/22 00:13:12;;;;;;;3.83;1.83;;;8.00;99.90;;;;;;4894178;29;20683;-72
2022/11/22 00:15:37;;;;;;;2.93;1.50;;;8.00;99.90;;;;;;4894075;29;20588;-72
2022/11/22 00:18:03;;;;;;;2.30;1.47;;;8.10;99.90;;;;;;4895242;29;20597;-72
2022/11/22 00:20:28;;;;;;;4.20;1.83;;;8.00;99.90;;;;;;4906933;29;20176;-71
2022/11/22 00:22:56;;;;;;;5.00;2.20;;;8.10;99.90;;;;;;4897775;29;20675;-72
2022/11/22 00:25:21;;;;;;;3.00;1.90;;;8.10;99.90;;;;;;4906424;29;20259;-72
2022/11/22 00:27:47;;;;;;;3.80;1.57;;;8.10;99.90;;;;;;4900832;29;20464;-72
2022/11/22 00:30:13;;;;;;;7.10;2.03;;;8.10;99.90;;;;;;4906233;29;20220;-71
2022/11/22 00:32:38;;;;;;;2.93;2.13;;;8.10;99.90;;;;;;4895575;29;20222;-72
2022/11/22 00:35:04;;;;;;;3.20;1.77;;;8.10;99.90;;;;;;4892986;29;20203;-71
2022/11/22 00:37:30;;;;;;;2.93;1.43;;;8.20;99.90;;;;;;4898787;29;20254;-71
2022/11/22 00:39:55;;;;;;;2.53;2.33;;;8.20;99.90;;;;;;4895083;29;20480;-71
2022/11/22 00:42:21;;;;;;;4.17;1.70;;;8.10;99.90;;;;;;4895945;29;20180;-71
2022/11/22 00:44:47;;;;;;;3.80;1.80;;;8.10;99.90;;;;;;4896066;29;20224;-70
2022/11/22 00:47:12;;;;;;;1.93;1.73;;;8.10;99.90;;;;;;4898389;29;20212;-70
2022/11/22 00:49:38;;;;;;;7.73;2.10;;;8.10;99.90;;;;;;4900643;29;20224;-70
2022/11/22 00:52:03;;;;;;;4.13;2.50;;;8.10;99.90;;;;;;4900578;29;20633;-70
2022/11/22 00:54:29;;;;;;;3.10;1.50;;;8.00;99.90;;;;;;4899713;29;20180;-70
2022/11/22 00:56:54;;;;;;;2.93;1.50;;;8.00;99.90;;;;;;4900554;29;20185;-70
2022/11/22 00:59:20;;;;;;;2.43;1.70;;;7.90;99.90;;;;;;4900635;29;20180;-70
2022/11/22 01:01:45;;;;;;;6.67;1.70;;;7.90;99.90;;;;;;4900575;29;20207;-70
2022/11/22 01:04:11;;;;;;;4.57;1.77;;;8.00;99.90;;;;;;4900523;29;20274;-70
2022/11/22 01:06:36;;;;;;;3.80;1.70;;;8.10;99.90;;;;;;4900356;29;20184;-71
2022/11/22 01:09:02;;;;;;;3.30;1.30;;;8.10;99.90;;;;;;4900415;29;20295;-72
2022/11/22 01:11:27;;;;;;;6.50;1.50;;;8.20;99.90;;;;;;4900436;29;20709;-71
2022/11/22 01:13:53;;;;;;;4.00;2.10;;;8.20;99.90;;;;;;4899928;29;20184;-72
2022/11/22 01:16:19;;;;;;;2.57;1.80;;;8.30;99.90;;;;;;4900568;29;20187;-72
2022/11/22 01:18:44;;;;;;;2.47;1.23;;;8.20;99.90;;;;;;4900877;29;20180;-71
2022/11/22 01:21:10;;;;;;;5.93;2.60;;;8.20;99.90;;;;;;4900810;29;20184;-71
2022/11/22 01:23:36;;;;;;;2.90;1.93;;;8.10;99.90;;;;;;4900987;29;20645;-71
2022/11/22 01:26:01;;;;;;;2.80;2.17;;;8.20;99.90;;;;;;4900913;29;20279;-71
2022/11/22 01:28:27;;;;;;;4.80;2.07;;;8.20;99.90;;;;;;4900913;29;20649;-71
2022/11/22 01:30:53;;;;;;;4.93;2.30;;;8.20;99.90;;;;;;4900580;29;20240;-70
2022/11/22 05:31:33;;;;;;;6.13;2.27;;;8.30;99.90;;;;;;5411649;23;20511;-72
2022/11/22 05:33:59;;;;;;;7.47;1.90;;;8.20;99.90;;;;;;4918680;29;20495;-72
2022/11/22 05:36:25;;;;;;;6.60;2.47;;;8.30;99.90;;;;;;4918747;29;21149;-72
2022/11/22 05:38:51;;;;;;;10.80;2.60;;;8.30;99.90;;;;;;4918593;29;20710;-73
2022/11/22 05:41:17;;;;;;;7.67;3.00;;;8.20;99.90;;;;;;4918526;29;20191;-75
2022/11/22 05:43:43;;;;;;;9.87;2.20;;;8.10;99.90;;;;;;4918670;29;20431;-72
2022/11/22 05:46:22;;;;;;;5.93;1.93;;;8.10;99.90;;;;;;4918097;29;20470;-73
2022/11/22 05:48:48;;;;;;;9.57;2.23;;;8.10;99.90;;;;;;4918463;29;20187;-74
2022/11/22 05:51:17;;;;;;;11.33;2.33;;;8.10;99.90;;;;;;4918443;29;20490;-73
2022/11/22 05:53:43;;;;;;;8.33;2.90;;;8.10;99.90;;;;;;4918349;29;20544;-71
2022/11/22 05:56:18;;;;;;;7.90;2.00;;;8.10;99.90;;;;;;4918386;29;20440;-71
2022/11/22 05:58:43;;;;;;;14.60;3.20;;;8.10;99.90;;;;;;4918279;29;20432;-73
2022/11/22 06:01:17;;;;;;;5.10;2.50;;;8.00;99.90;;;;;;4918377;29;20519;-70
2022/11/22 06:03:43;;;;;;;9.27;2.93;;;8.00;99.90;;;;;;4918247;29;20199;-76
2022/11/22 06:06:10;;;;;;;6.10;2.40;;;8.00;99.90;;;;;;4917986;29;20927;-73
2022/11/22 06:08:39;;;;;;;8.77;2.20;;;8.00;99.90;;;;;;4917999;29;20192;-73
2022/11/22 06:11:08;;;;;;;11.93;2.70;;;8.00;99.90;;;;;;4917996;29;20574;-73
2022/11/22 06:13:35;;;;;;;3.13;2.00;;;7.90;99.90;;;;;;4917992;29;20427;-73
2022/11/22 06:16:02;;;;;;;11.03;3.00;;;7.90;99.90;;;;;;4918009;29;20454;-73
2022/11/22 06:18:28;;;;;;;5.67;2.40;;;8.00;99.90;;;;;;4917851;29;20463;-72
2022/11/22 06:21:07;;;;;;;7.07;2.63;;;7.90;99.90;;;;;;4917774;29;20530;-73
2022/11/22 06:23:32;;;;;;;8.77;2.20;;;8.00;99.90;;;;;;4915422;29;20179;-73
2022/11/22 06:26:00;;;;;;;5.10;2.57;;;8.00;99.90;;;;;;4917300;29;20427;-75
2022/11/22 06:28:28;;;;;;;5.57;2.40;;;7.90;99.90;;;;;;4917547;29;20184;-73
2022/11/22 06:30:59;;;;;;;9.00;2.73;;;8.10;99.90;;;;;;4917227;29;20519;-73
2022/11/22 06:33:24;;;;;;;8.10;2.43;;;8.00;99.90;;;;;;4917776;29;20424;-79
2022/11/22 06:35:50;;;;;;;11.83;2.80;;;8.00;99.90;;;;;;4917624;29;20440;-73
2022/11/22 06:38:16;;;;;;;5.47;2.70;;;8.10;99.90;;;;;;4917182;29;20661;-73
2022/11/22 06:40:41;;;;;;;4.83;2.50;;;8.00;99.90;;;;;;4918135;29;20254;-73
2022/11/22 06:43:07;;;;;;;7.47;1.77;;;8.10;99.90;;;;;;4918222;29;20627;-73
2022/11/22 06:45:32;;;;;;;7.43;2.27;;;8.10;99.90;;;;;;4918118;29;20274;-73
2022/11/22 06:47:58;;;;;;;7.50;2.17;;;8.00;99.90;;;;;;4918178;29;20184;-73
2022/11/22 06:50:23;;;;;;;8.37;3.13;;;8.00;99.90;;;;;;4918390;29;20215;-73
2022/11/22 06:52:52;;;;;;;8.90;2.00;;;7.90;99.90;;;;;;4918043;29;20219;-73
2022/11/22 06:55:18;;;;;;;6.93;2.80;;;7.90;99.90;;;;;;4918273;29;20543;-73
2022/11/22 06:57:48;;;;;;;7.43;2.43;;;7.90;99.90;;;;;;4925497;29;20428;-73
2022/11/22 07:00:14;;;;;;;12.83;3.17;;;8.00;99.90;;;;;;4921065;29;20183;-74
2022/11/22 07:02:39;;;;;;;10.33;2.97;;;8.00;99.90;;;;;;4920748;29;20443;-74
2022/11/22 07:05:05;;;;;;;10.53;2.40;;;7.90;99.90;;;;;;4917943;29;20584;-74
2022/11/22 07:07:30;;;;;;;8.93;3.10;;;7.80;99.90;;;;;;4919846;29;20183;-74
2022/11/22 07:09:56;;;;;;;8.43;3.00;;;7.80;99.90;;;;;;4916113;29;20216;-74
2022/11/22 07:12:21;;;;;;;8.50;2.60;;;7.80;99.90;;;;;;4920261;29;20184;-73
2022/11/22 07:14:47;;;;;;;5.80;2.10;;;7.80;99.90;;;;;;4918973;29;20168;-73
2022/11/22 07:17:12;;;;;;;13.13;4.00;;;7.80;99.90;;;;;;4923870;29;20184;-72
2022/11/22 07:19:38;;;;;;;10.00;2.30;;;7.80;99.90;;;;;;4917641;29;20655;-74
2022/11/22 07:22:03;;;;;;;6.40;3.10;;;7.90;99.90;;;;;;4917164;29;20686;-72
2022/11/22 07:24:29;;;;;;;11.93;2.63;;;7.80;99.90;;;;;;4917576;29;20211;-72
2022/11/22 07:26:55;;;;;;;7.73;4.50;;;7.70;99.90;;;;;;4917461;29;20215;-73
2022/11/22 07:29:20;;;;;;;17.20;2.53;;;7.70;99.90;;;;;;4917345;29;20717;-72
2022/11/22 07:31:46;;;;;;;11.23;3.00;;;7.70;99.90;;;;;;4917188;29;20325;-72
2022/11/22 07:34:11;;;;;;;12.53;2.90;;;7.80;99.90;;;;;;4917535;29;20180;-72
2022/11/22 07:36:37;;;;;;;8.20;2.63;;;7.90;99.90;;;;;;4917536;29;20191;-72
2022/11/22 07:39:03;;;;;;;9.37;3.13;;;7.90;99.90;;;;;;4917320;29;20184;-72
2022/11/22 07:41:28;;;;;;;7.70;2.60;;;7.80;99.90;;;;;;4917338;29;20180;-72
2022/11/22 07:43:54;;;;;;;5.33;3.33;;;7.80;99.90;;;;;;4917267;29;20252;-72
2022/11/22 07:46:31;;;;;;;13.90;3.20;;;7.90;99.90;;;;;;4917330;29;20182;-73
2022/11/22 07:48:58;;;;;;;8.30;2.27;;;7.90;99.90;;;;;;4915870;29;20175;-73
2022/11/22 07:51:24;;;;;;;15.57;3.33;;;7.80;99.90;;;;;;4915598;29;20963;-73
2022/11/22 07:53:50;;;;;;;9.03;2.50;;;7.80;99.90;;;;;;4915419;29;20522;-73
2022/11/22 07:56:16;;;;;;;5.63;2.33;;;7.80;99.90;;;;;;4915961;29;20179;-73
2022/11/22 07:58:42;;;;;;;8.97;2.67;;;7.80;99.90;;;;;;4916984;29;20436;-72
2022/11/22 08:01:10;;;;;;;7.53;3.50;;;7.80;99.90;;;;;;4917127;29;20591;-73
2022/11/22 08:03:36;;;;;;;6.50;2.77;;;7.80;99.90;;;;;;4917121;29;20176;-73
2022/11/22 08:06:05;;;;;;;6.27;2.20;;;7.80;99.90;;;;;;4917026;29;20478;-73
2022/11/22 08:08:31;;;;;;;12.10;3.57;;;7.90;99.90;;;;;;4917065;29;20428;-73
2022/11/22 08:10:56;;;;;;;10.00;2.20;;;8.00;99.90;;;;;;4916936;29;20475;-73
2022/11/22 08:13:22;;;;;;;10.07;2.83;;;8.10;99.90;;;;;;4917018;29;20670;-73
2022/11/22 08:15:48;;;;;;;10.53;2.73;;;8.20;99.90;;;;;;4917023;29;20699;-73
2022/11/22 08:18:14;;;;;;;9.33;2.70;;;8.20;99.90;;;;;;4917082;29;20424;-73
2022/11/22 08:20:40;;;;;;;7.70;3.10;;;8.20;99.90;;;;;;4916935;29;20435;-73
2022/11/22 08:23:06;;;;;;;6.43;2.80;;;8.20;99.90;;;;;;4916852;29;20434;-73
2022/11/22 08:25:31;;;;;;;10.73;3.23;;;8.30;99.90;;;;;;4916905;29;20206;-73
2022/11/22 08:27:57;;;;;;;9.93;3.23;;;8.20;99.90;;;;;;4916849;29;20176;-73
2022/11/22 08:30:22;;;;;;;11.67;3.50;;;8.10;99.90;;;;;;4916607;29;20722;-73
2022/11/22 08:32:50;;;;;;;6.47;1.87;;;8.10;99.90;;;;;;4916843;29;20184;-73
2022/11/22 08:35:16;;;;;;;9.40;3.13;;;8.30;99.90;;;;;;4916776;29;20184;-73
2022/11/22 08:37:41;;;;;;;10.83;2.70;;;8.40;99.90;;;;;;4916662;29;20798;-73
2022/11/22 08:40:07;;;;;;;6.77;2.60;;;8.50;99.90;;;;;;4916753;29;20176;-72
2022/11/22 08:42:33;;;;;;;11.03;2.13;;;8.50;99.90;;;;;;4916697;29;20191;-73
2022/11/22 08:44:59;;;;;;;4.60;1.70;;;8.50;99.90;;;;;;4916705;29;20431;-72
2022/11/22 08:47:24;;;;;;;9.20;2.53;;;8.70;99.90;;;;;;4916601;29;20180;-73
2022/11/22 08:49:50;;;;;;;6.87;2.30;;;8.80;99.90;;;;;;4916525;29;20212;-73
2022/11/22 08:52:15;;;;;;;5.43;2.17;;;8.90;99.90;;;;;;4916656;29;20190;-72
2022/11/22 08:54:41;;;;;;;6.47;2.47;;;9.00;99.90;;;;;;4916639;29;20180;-73
2022/11/22 08:57:06;;;;;;;14.57;2.60;;;9.10;99.90;;;;;;4916617;29;20247;-73
2022/11/22 08:59:32;;;;;;;8.00;2.13;;;9.10;99.90;;;;;;4916632;29;20533;-72
2022/11/22 09:01:57;;;;;;;6.97;2.20;;;9.10;99.90;;;;;;4916520;29;20701;-73
2022/11/22 09:04:23;;;;;;;7.63;2.23;;;9.00;99.90;;;;;;4899636;29;20202;-73
2022/11/22 09:06:48;;;;;;;3.50;1.80;;;9.00;99.90;;;;;;4916987;29;20180;-73
2022/11/22 09:09:14;;;;;;;6.87;2.10;;;8.90;99.90;;;;;;4920074;29;20180;-73
2022/11/22 09:11:39;;;;;;;6.07;1.97;;;9.00;99.90;;;;;;4903123;29;20336;-72
2022/11/22 09:14:05;;;;;;;2.07;1.30;;;9.10;99.90;;;;;;4920090;29;20168;-72
2022/11/22 09:16:31;;;;;;;7.80;1.90;;;9.10;99.90;;;;;;4920148;29;20639;-72
2022/11/22 09:18:57;;;;;;;3.47;1.87;;;9.10;99.90;;;;;;4919953;29;20607;-72
2022/11/22 09:21:22;;;;;;;4.70;2.33;;;9.20;99.90;;;;;;4920108;29;20432;-72
2022/11/22 09:23:49;;;;;;;4.50;1.83;;;9.10;99.90;;;;;;4919840;29;20184;-72
2022/11/22 09:26:18;;;;;;;3.70;1.90;;;9.20;99.90;;;;;;4919902;29;20184;-72
2022/11/22 09:28:44;;;;;;;6.27;2.30;;;9.20;99.90;;;;;;4919849;29;20447;-72
2022/11/22 09:31:13;;;;;;;7.00;2.07;;;9.30;99.90;;;;;;4919081;29;20578;-72
2022/11/22 09:33:40;;;;;;;3.80;1.77;;;9.40;99.90;;;;;;4918616;29;20442;-72
2022/11/22 09:36:11;;;;;;;5.87;2.20;;;9.50;99.90;;;;;;4918511;29;20443;-72
2022/11/22 09:38:37;;;;;;;4.07;1.73;;;9.50;99.90;;;;;;4918529;29;20432;-72
2022/11/22 09:41:14;;;;;;;4.83;1.87;;;9.50;99.90;;;;;;4918537;29;20479;-72
2022/11/22 09:44:23;;;;;;;10.73;1.63;;;9.50;99.90;;;;;;4918484;29;20197;-72
2022/11/22 09:46:55;;;;;;;5.13;1.70;;;9.50;99.90;;;;;;4908028;29;20515;-72
2022/11/22 09:49:57;;;;;;;10.73;2.20;;;9.70;99.90;;;;;;4918413;29;20423;-72
2022/11/22 09:52:40;;;;;;;7.33;2.03;;;9.70;99.90;;;;;;4918451;29;20474;-72
2022/11/22 09:55:12;;;;;;;7.97;2.63;;;9.70;99.90;;;;;;4918455;29;20811;-72
2022/11/22 09:57:46;;;;;;;7.00;3.10;;;9.70;99.90;;;;;;4918346;29;20435;-73
2022/11/22 10:00:25;;;;;;;5.93;2.63;;;9.70;99.90;;;;;;4918239;29;20450;-73
2022/11/22 10:02:58;;;;;;;7.17;2.30;;;9.60;99.90;;;;;;4918093;29;20431;-73
2022/11/22 10:05:31;;;;;;;5.03;1.70;;;9.80;99.90;;;;;;4918235;29;20443;-72
2022/11/22 10:08:13;;;;;;;6.70;2.10;;;9.70;99.90;;;;;;4918149;29;20760;-73
2022/11/22 10:10:41;;;;;;;8.33;1.90;;;9.70;99.90;;;;;;4918006;29;20494;-73
2022/11/22 10:13:18;;;;;;;5.10;2.73;;;9.70;99.90;;;;;;4917985;29;20420;-73
2022/11/22 10:16:13;;;;;;;8.70;2.00;;;9.70;99.90;;;;;;4917926;29;20431;-73
2022/11/22 10:18:55;;;;;;;3.93;2.00;;;9.70;99.90;;;;;;4917445;29;20942;-72
2022/11/22 10:21:21;;;;;;;3.30;1.77;;;9.80;99.90;;;;;;4917936;29;20455;-73
2022/11/22 10:23:47;;;;;;;5.87;2.00;;;9.90;99.90;;;;;;4917799;29;20503;-74
2022/11/22 10:26:23;;;;;;;5.50;2.17;;;9.80;99.90;;;;;;4917802;29;20184;-73
2022/11/22 10:28:57;;;;;;;10.33;2.70;;;9.90;99.90;;;;;;4917747;29;20175;-73
2022/11/22 10:31:35;;;;;;;3.40;2.40;;;9.90;99.90;;;;;;4881515;29;1067109;-73
2022/11/22 10:34:33;;;;;;;6.80;3.00;;;9.90;99.90;;;;;;4918639;29;20655;-73
2022/11/22 10:37:18;;;;;;;8.93;1.93;;;10.00;99.90;;;;;;4918568;29;20528;-73
2022/11/22 10:40:05;;;;;;;5.60;1.53;;;9.90;99.90;;;;;;4918570;29;20431;-73
2022/11/22 10:42:45;;;;;;;12.83;1.93;;;9.90;99.90;;;;;;4918514;29;20487;-74
2022/11/22 10:45:25;;;;;;;6.43;1.80;;;9.90;99.90;;;;;;4918364;29;20428;-74
2022/11/22 10:47:59;;;;;;;9.43;2.30;;;10.00;99.90;;;;;;4918418;29;20434;-72
2022/11/22 10:50:42;;;;;;;6.70;2.50;;;9.90;99.90;;;;;;4918435;29;20482;-73
2022/11/22 10:53:29;;;;;;;6.10;1.83;;;9.70;99.90;;;;;;4918178;29;20440;-73
2022/11/22 10:55:58;;;;;;;8.87;2.43;;;9.70;99.90;;;;;;4918140;29;20435;-73
2022/11/22 10:58:26;;;;;;;6.10;2.70;;;9.70;99.90;;;;;;4918269;29;20432;-73
2022/11/22 11:01:18;;;;;;;7.43;2.27;;;9.70;99.90;;;;;;4918116;29;20435;-73
2022/11/22 11:03:47;;;;;;;6.20;2.60;;;9.60;99.90;;;;;;4879226;29;20949;-72
2022/11/22 11:06:20;;;;;;;7.23;1.90;;;9.60;99.90;;;;;;4918209;29;20531;-73
2022/11/22 11:08:54;;;;;;;3.20;1.60;;;9.50;99.90;;;;;;4918045;29;20428;-73
2022/11/22 11:11:23;;;;;;;5.17;1.50;;;9.60;99.90;;;;;;4918045;29;20488;-73
2022/11/22 11:13:55;;;;;;;3.30;1.60;;;9.60;99.90;;;;;;4917954;29;20470;-73
2022/11/22 11:16:25;;;;;;;7.93;1.87;;;9.70;99.90;;;;;;4918011;29;20438;-73
2022/11/22 11:18:53;;;;;;;3.10;1.50;;;9.70;99.90;;;;;;4917731;29;20849;-73
2022/11/22 11:21:18;;;;;;;2.67;1.97;;;9.70;99.90;;;;;;4917841;29;20440;-73
2022/11/22 11:23:44;;;;;;;7.40;1.90;;;9.80;99.90;;;;;;4917728;29;20435;-74
2022/11/22 11:26:24;;;;;;;10.73;3.10;;;9.90;99.90;;;;;;4917902;29;20184;-73
2022/11/22 11:28:50;;;;;;;3.93;1.30;;;10.00;99.90;;;;;;4917735;29;20599;-73
2022/11/22 11:31:20;;;;;;;6.80;1.67;;;10.00;99.90;;;;;;4916715;29;20499;-73
2022/11/22 11:33:46;;;;;;;10.53;2.17;;;9.90;99.90;;;;;;4917514;29;20428;-73
2022/11/22 11:36:22;;;;;;;6.03;2.87;;;9.90;99.90;;;;;;4917627;29;20431;-73
2022/11/22 11:38:47;;;;;;;6.80;3.40;;;9.90;99.90;;;;;;4917462;29;20471;-73
2022/11/22 11:41:23;;;;;;;6.13;2.27;;;9.80;99.90;;;;;;4917576;29;20442;-73
2022/11/22 11:43:51;;;;;;;14.80;6.00;;;9.80;99.90;;;;;;4917396;29;20275;-72
2022/11/22 11:46:27;;;;;;;13.70;6.17;;;9.80;99.90;;;;;;4917402;29;20431;-72
2022/11/22 11:49:14;;;;;;;15.73;7.70;;;9.80;99.90;;;;;;4917403;29;20439;-73
2022/11/22 11:52:07;;;;;;;10.47;4.50;;;9.90;99.90;;;;;;4916600;29;20481;-73
2022/11/22 11:54:42;;;;;;;2.50;1.50;;;10.00;99.90;;;;;;4907080;29;20443;-73
2022/11/22 11:57:29;;;;;;;5.77;1.93;;;10.10;99.90;;;;;;4917198;29;20439;-73
2022/11/22 11:59:57;;;;;;;8.00;4.50;;;10.10;99.90;;;;;;4900042;29;20932;-73
2022/11/22 12:02:40;;;;;;;9.67;3.03;;;9.90;99.90;;;;;;4917176;29;20499;-73
2022/11/22 12:05:25;;;;;;;7.03;1.57;;;9.80;99.90;;;;;;4917254;29;20456;-72
2022/11/22 12:07:50;;;;;;;4.83;2.60;;;9.90;99.90;;;;;;4916866;29;20442;-73
2022/11/22 12:10:55;;;;;;;2.40;1.43;;;9.90;99.90;;;;;;4917073;29;20474;-73
2022/11/22 12:13:26;;;;;;;4.00;1.30;;;9.90;99.90;;;;;;4912421;29;20180;-73
2022/11/22 12:16:17;;;;;;;3.40;1.67;;;9.90;99.90;;;;;;4916784;29;20498;-74
2022/11/22 12:18:55;;;;;;;4.97;1.33;;;9.90;99.90;;;;;;4917000;29;20783;-74
2022/11/22 12:21:38;;;;;;;3.90;1.37;;;9.90;99.90;;;;;;4917090;29;20415;-74
2022/11/22 12:24:23;;;;;;;7.10;2.40;;;10.00;99.90;;;;;;4917014;29;20514;-73
2022/11/22 12:26:49;;;;;;;4.60;1.20;;;10.00;99.90;;;;;;4916753;29;20434;-73
2022/11/22 12:29:15;;;;;;;2.27;1.93;;;10.00;99.90;;;;;;4916711;29;20439;-74
2022/11/22 12:32:06;;;;;;;2.50;1.00;;;10.10;99.90;;;;;;4916502;29;20240;-74
2022/11/22 12:34:53;;;;;;;2.70;1.13;;;10.10;99.90;;;;;;4916856;29;20227;-74
2022/11/22 12:37:18;;;;;;;6.13;1.43;;;10.10;99.90;;;;;;4916808;29;20461;-73
2022/11/22 12:39:50;;;;;;;6.00;1.97;;;10.10;99.90;;;;;;4916621;29;20502;-73
2022/11/22 12:42:39;;;;;;;4.83;2.80;;;10.20;99.90;;;;;;4919661;29;20543;-73
2022/11/22 12:45:10;;;;;;;5.20;2.90;;;10.20;99.90;;;;;;4920604;29;20444;-73
2022/11/22 12:47:41;;;;;;;3.37;1.70;;;10.30;99.90;;;;;;4920367;29;20466;-73
2022/11/22 12:50:15;;;;;;;3.67;1.53;;;10.20;99.90;;;;;;4920357;29;20490;-73
2022/11/22 12:52:51;;;;;;;3.13;1.80;;;10.30;99.90;;;;;;4920323;29;20987;-74
2022/11/22 12:55:33;;;;;;;5.57;1.23;;;10.40;99.90;;;;;;4920209;29;20446;-74
2022/11/22 12:58:11;;;;;;;3.23;0.87;;;10.40;99.90;;;;;;4920271;29;20938;-74
2022/11/22 13:00:45;;;;;;;2.10;1.10;;;10.30;99.90;;;;;;4920243;29;20439;-74
2022/11/22 13:03:16;;;;;;;7.57;1.40;;;10.40;99.90;;;;;;4920315;29;20420;-74
2022/11/22 13:05:49;;;;;;;2.23;0.97;;;10.40;99.90;;;;;;4920227;29;20758;-74
2022/11/22 13:09:01;;;;;;;2.80;1.30;;;10.40;99.90;;;;;;4920339;29;20431;-74
2022/11/22 13:11:38;;;;;;;4.77;1.20;;;10.50;99.90;;;;;;4909641;29;20482;-74
2022/11/22 13:14:14;;;;;;;4.43;1.50;;;10.60;99.90;;;;;;4920198;29;20483;-74
2022/11/22 13:16:39;;;;;;;3.27;1.17;;;10.70;99.90;;;;;;4919951;29;20439;-74
2022/11/22 13:19:07;;;;;;;4.50;1.50;;;10.80;99.90;;;;;;4919886;29;20515;-74
2022/11/22 13:21:51;;;;;;;3.83;0.87;;;10.80;99.90;;;;;;4920015;29;20176;-74
2022/11/22 13:24:51;;;;;;;3.93;1.30;;;10.90;99.90;;;;;;4919960;29;20816;-74
2022/11/22 13:27:28;;;;;;;5.33;1.50;;;11.00;99.90;;;;;;4919909;29;20901;-74
2022/11/22 13:29:57;;;;;;;2.43;1.53;;;11.10;99.90;;;;;;4919790;29;20467;-74
2022/11/22 13:32:31;;;;;;;1.73;1.20;;;11.00;99.90;;;;;;4919703;29;20558;-74
2022/11/22 13:35:12;;;;;;;4.60;1.23;;;11.00;99.90;;;;;;4919730;29;20463;-74
2022/11/22 13:37:44;;;;;;;1.40;0.93;;;11.10;99.90;;;;;;4919727;29;20993;-75
2022/11/22 13:40:16;;;;;;;1.90;1.10;;;11.00;99.90;;;;;;4919673;29;20435;-74
2022/11/22 13:42:42;;;;;;;4.10;1.43;;;11.00;99.90;;;;;;4919496;29;21069;-74
2022/11/22 13:45:23;;;;;;;3.70;1.60;;;10.90;99.90;;;;;;4919664;29;20456;-74
2022/11/22 13:47:49;;;;;;;4.57;1.70;;;10.80;99.90;;;;;;4919488;29;20432;-74
2022/11/22 13:50:33;;;;;;;2.73;1.23;;;10.80;99.90;;;;;;4919423;29;20483;-74
2022/11/22 13:53:21;;;;;;;6.33;1.40;;;10.60;99.90;;;;;;4918513;29;20515;-74
2022/11/22 13:55:46;;;;;;;5.67;1.30;;;10.60;99.90;;;;;;4919324;29;20789;-74
2022/11/22 13:58:24;;;;;;;4.83;1.73;;;10.60;99.90;;;;;;4919409;29;20440;-74
2022/11/22 14:00:54;;;;;;;4.57;1.60;;;10.60;99.90;;;;;;4919197;29;20187;-74
2022/11/22 14:03:33;;;;;;;4.57;1.30;;;10.50;99.90;;;;;;4919047;29;20444;-76
2022/11/22 14:06:12;;;;;;;3.50;1.30;;;10.50;99.90;;;;;;4918520;29;20427;-77
2022/11/22 14:08:42;;;;;;;4.10;1.13;;;10.50;99.90;;;;;;4917890;29;20439;-73
2022/11/22 14:11:42;;;;;;;1.97;1.20;;;10.40;99.90;;;;;;4918696;29;21065;-76
2022/11/22 14:14:17;;;;;;;6.40;1.60;;;10.20;99.90;;;;;;4905533;29;20838;-75
2022/11/22 14:17:00;;;;;;;5.43;1.50;;;10.20;99.90;;;;;;4918921;29;20432;-77
2022/11/22 14:19:44;;;;;;;1.57;1.17;;;10.30;99.90;;;;;;4918946;29;20791;-77
2022/11/22 14:22:18;;;;;;;4.13;1.10;;;10.20;99.90;;;;;;4919039;29;20502;-77
2022/11/22 14:25:01;;;;;;;1.67;1.40;;;10.20;99.90;;;;;;4918085;29;20441;-74
2022/11/22 14:28:00;;;;;;;2.47;1.40;;;10.30;99.90;;;;;;4918721;29;20424;-74
2022/11/22 14:30:47;;;;;;;3.30;1.37;;;10.30;99.90;;;;;;4918540;29;20991;-74
2022/11/22 14:33:16;;;;;;;1.83;1.03;;;10.20;99.90;;;;;;4918851;29;20833;-74
2022/11/22 14:36:06;;;;;;;7.33;2.90;;;10.20;99.90;;;;;;4918469;29;20794;-74
2022/11/22 14:38:39;;;;;;;4.10;1.03;;;10.10;99.90;;;;;;4918528;29;20499;-74
2022/11/22 14:41:29;;;;;;;1.43;0.90;;;10.20;99.90;;;;;;4918454;29;20436;-73
2022/11/22 14:44:07;;;;;;;3.17;1.47;;;10.30;99.90;;;;;;4918474;29;20507;-74
2022/11/22 14:46:55;;;;;;;3.90;1.30;;;10.20;99.90;;;;;;4918444;29;20831;-74
2022/11/22 14:49:30;;;;;;;1.40;1.30;;;10.10;99.90;;;;;;4918338;29;20439;-74
2022/11/22 14:51:57;;;;;;;4.37;1.60;;;10.10;99.90;;;;;;4918354;29;20494;-74
2022/11/22 14:54:28;;;;;;;6.07;2.10;;;10.00;99.90;;;;;;4918466;29;20790;-74
2022/11/22 14:56:57;;;;;;;2.33;1.30;;;10.10;99.90;;;;;;4918358;29;20416;-73
2022/11/22 14:59:40;;;;;;;1.70;1.07;;;10.00;99.90;;;;;;4918310;29;20459;-74
2022/11/22 15:02:40;;;;;;;5.20;1.23;;;9.90;99.90;;;;;;4918055;29;20495;-74
2022/11/22 15:05:21;;;;;;;2.53;1.20;;;9.90;99.90;;;;;;4918120;29;20427;-74
2022/11/22 15:08:17;;;;;;;2.07;1.00;;;9.90;99.90;;;;;;4918142;29;20412;-73
2022/11/22 15:11:20;;;;;;;9.60;1.30;;;9.90;99.90;;;;;;4917789;29;20476;-74
2022/11/22 15:14:22;;;;;;;2.93;1.33;;;9.80;99.90;;;;;;4917939;29;20431;-74
2022/11/22 15:16:52;;;;;;;2.50;1.27;;;9.70;99.90;;;;;;4900913;29;20783;-74
2022/11/22 15:19:37;;;;;;;6.33;2.77;;;9.70;99.90;;;;;;4917892;29;20790;-74
2022/11/22 15:22:20;;;;;;;4.73;1.27;;;9.80;99.90;;;;;;4917851;29;20862;-74
2022/11/22 15:24:51;;;;;;;3.07;1.17;;;9.70;99.90;;;;;;4917731;29;20499;-74
2022/11/22 15:27:32;;;;;;;3.13;1.57;;;9.60;99.90;;;;;;4917704;29;20432;-74
2022/11/22 15:30:19;;;;;;;3.63;1.50;;;9.60;99.90;;;;;;4917673;29;20499;-74
2022/11/22 15:32:49;;;;;;;1.77;1.03;;;9.60;99.90;;;;;;4917564;29;20475;-74
2022/11/22 15:35:17;;;;;;;5.40;1.30;;;9.60;99.90;;;;;;4917596;29;20428;-74
2022/11/22 15:37:53;;;;;;;3.83;1.00;;;9.60;99.90;;;;;;4917588;29;20459;-74
2022/11/22 15:40:20;;;;;;;2.60;1.53;;;9.60;99.90;;;;;;4917545;29;20424;-74
2022/11/22 15:43:00;;;;;;;1.30;1.00;;;9.70;99.90;;;;;;4917323;29;20483;-73
2022/11/22 15:45:29;;;;;;;2.03;1.40;;;9.70;99.90;;;;;;4917426;29;20431;-74
2022/11/22 15:47:58;;;;;;;4.00;1.53;;;9.60;99.90;;;;;;4917314;29;20428;-74
2022/11/22 15:50:24;;;;;;;2.17;1.50;;;9.60;99.90;;;;;;4917251;29;20526;-74
2022/11/22 15:53:04;;;;;;;2.07;1.37;;;9.60;99.90;;;;;;4917271;29;20420;-74
2022/11/22 15:55:29;;;;;;;3.07;1.60;;;9.50;99.90;;;;;;4917362;29;20446;-74
2022/11/22 15:57:55;;;;;;;2.70;1.30;;;9.50;99.90;;;;;;4917292;29;20428;-74
2022/11/22 16:00:26;;;;;;;2.40;1.07;;;9.40;99.90;;;;;;4917252;29;20270;-74
2022/11/22 16:03:00;;;;;;;2.20;1.47;;;9.40;99.90;;;;;;4917193;29;20515;-74
2022/11/22 16:05:34;;;;;;;2.03;1.57;;;9.50;99.90;;;;;;4917008;29;20789;-74
2022/11/22 16:08:01;;;;;;;4.37;1.80;;;9.50;99.90;;;;;;4915856;29;20508;-73
2022/11/22 16:10:38;;;;;;;2.60;1.50;;;9.50;99.90;;;;;;4916071;29;20471;-73
2022/11/22 16:13:19;;;;;;;2.47;1.40;;;9.50;99.90;;;;;;4915817;29;20511;-73
2022/11/22 16:16:14;;;;;;;1.40;1.30;;;9.40;99.90;;;;;;4915048;29;20893;-73
2022/11/22 16:18:41;;;;;;;8.33;2.67;;;9.40;99.90;;;;;;4915888;29;20448;-75
2022/11/22 16:21:10;;;;;;;3.77;2.33;;;9.50;99.90;;;;;;4916024;29;20470;-75
2022/11/22 16:23:37;;;;;;;3.63;2.10;;;9.30;99.90;;;;;;4916059;29;20792;-74
2022/11/22 16:26:20;;;;;;;10.43;2.73;;;9.40;99.90;;;;;;4915242;29;20945;-74
2022/11/22 16:28:49;;;;;;;2.80;2.60;;;9.40;99.90;;;;;;4915887;29;20534;-72
2022/11/22 16:31:19;;;;;;;3.63;2.40;;;9.40;99.90;;;;;;4915497;29;20583;-72
2022/11/22 16:33:45;;;;;;;2.87;1.87;;;9.30;99.90;;;;;;4915773;29;20447;-71
2022/11/22 16:36:13;;;;;;;3.90;1.33;;;9.30;99.90;;;;;;4915474;29;20424;-73
2022/11/22 16:38:39;;;;;;;1.97;1.37;;;9.30;99.90;;;;;;4915548;29;20180;-72
2022/11/22 16:41:15;;;;;;;2.57;1.53;;;9.30;99.90;;;;;;4915817;29;20978;-72
2022/11/22 16:43:41;;;;;;;2.00;1.20;;;9.20;99.90;;;;;;4915715;29;20263;-70
2022/11/22 16:46:08;;;;;;;3.17;1.60;;;9.20;99.90;;;;;;4915898;29;20850;-75
2022/11/22 16:48:33;;;;;;;2.57;2.00;;;9.10;99.90;;;;;;4915323;29;20172;-73
2022/11/22 16:51:05;;;;;;;1.93;1.70;;;9.10;99.90;;;;;;4915063;29;20475;-73
2022/11/22 16:53:46;;;;;;;1.97;1.30;;;9.20;99.90;;;;;;4915393;29;20183;-74
2022/11/22 16:56:17;;;;;;;6.00;1.80;;;9.30;99.90;;;;;;4915564;29;20577;-73
2022/11/22 16:58:43;;;;;;;2.87;2.10;;;9.20;99.90;;;;;;4915818;29;20801;-85
2022/11/22 17:01:13;;;;;;;3.97;1.63;;;9.20;99.90;;;;;;4915777;29;20445;-81
2022/11/22 17:03:39;;;;;;;1.93;1.37;;;9.20;99.90;;;;;;4915547;29;20184;-75
2022/11/22 17:06:05;;;;;;;6.90;2.60;;;9.20;99.90;;;;;;4915564;29;20787;-76
2022/11/22 17:08:30;;;;;;;2.60;1.60;;;9.10;99.90;;;;;;4915626;29;20184;-75
2022/11/22 17:10:56;;;;;;;4.93;1.23;;;9.10;99.90;;;;;;4915137;29;20278;-74
2022/11/22 17:13:24;;;;;;;1.30;1.20;;;9.10;99.90;;;;;;4915234;29;20263;-74
2022/11/22 17:15:51;;;;;;;2.50;1.13;;;9.10;99.90;;;;;;4915266;29;20639;-75